Terminal Aerodrome Forecast
Issued by NWS

Home | Current Version | Previous Version | Text Only | Print | Product List | Glossary Off
Versions: 1 2 3 4 5 6 7 8 9 10 11 12

000
FTUS43 KBIS 212300
TAFJMS
TAF
KJMS 212331Z 2200/2224 17016G21KT P6SM SKC
     FM220100 16009KT P6SM SCT120
     FM221800 22009KT P6SM BKN090=

USA.gov is the U.S. government's official web portal to all federal, state and local government web resources and services.